sensor_id;sensor_type;location;lat;lon;timestamp;temperature;humidity
4187;DHT22;2107;52.306;10.484;2023-03-05T00:01:42;2.60;99.90
4187;DHT22;2107;52.306;10.484;2023-03-05T00:04:11;2.60;99.90
4187;DHT22;2107;52.306;10.484;2023-03-05T00:06:38;2.60;99.90
4187;DHT22;2107;52.306;10.484;2023-03-05T00:09:05;2.70;99.90
4187;DHT22;2107;52.306;10.484;2023-03-05T00:11:32;2.70;99.90
4187;DHT22;2107;52.306;10.484;2023-03-05T00:14:02;2.70;99.90
4187;DHT22;2107;52.306;10.484;2023-03-05T00:16:29;2.60;99.90
4187;DHT22;2107;52.306;10.484;2023-03-05T00:18:57;2.60;99.90
4187;DHT22;2107;52.306;10.484;2023-03-05T00:21:26;2.60;99.90
4187;DHT22;2107;52.306;10.484;2023-03-05T00:23:54;2.70;99.90
4187;DHT22;2107;52.306;10.484;2023-03-05T00:26:23;2.60;99.90
4187;DHT22;2107;52.306;10.484;2023-03-05T00:28:50;2.60;99.90
4187;DHT22;2107;52.306;10.484;2023-03-05T00:31:21;2.60;99.90
4187;DHT22;2107;52.306;10.484;2023-03-05T00:33:50;2.60;99.90
4187;DHT22;2107;52.306;10.484;2023-03-05T00:36:17;2.50;99.90
4187;DHT22;2107;52.306;10.484;2023-03-05T00:38:44;2.50;99.90
4187;DHT22;2107;52.306;10.484;2023-03-05T00:41:11;2.50;99.90
4187;DHT22;2107;52.306;10.484;2023-03-05T00:43:38;2.40;99.90
4187;DHT22;2107;52.306;10.484;2023-03-05T00:46:05;2.50;99.90
4187;DHT22;2107;52.306;10.484;2023-03-05T00:48:33;2.40;99.90
4187;DHT22;2107;52.306;10.484;2023-03-05T00:51:00;2.40;99.90
4187;DHT22;2107;52.306;10.484;2023-03-05T00:53:27;2.40;99.90
4187;DHT22;2107;52.306;10.484;2023-03-05T00:55:53;2.40;99.90
4187;DHT22;2107;52.306;10.484;2023-03-05T00:58:20;2.40;99.90
4187;DHT22;2107;52.306;10.484;2023-03-05T01:00:47;2.30;99.90
4187;DHT22;2107;52.306;10.484;2023-03-05T01:03:15;2.30;99.90
4187;DHT22;2107;52.306;10.484;2023-03-05T01:05:44;2.30;99.90
4187;DHT22;2107;52.306;10.484;2023-03-05T01:08:11;2.40;99.90
4187;DHT22;2107;52.306;10.484;2023-03-05T01:10:38;2.30;99.90
4187;DHT22;2107;52.306;10.484;2023-03-05T01:13:05;2.30;99.90
4187;DHT22;2107;52.306;10.484;2023-03-05T01:15:31;2.40;99.90
4187;DHT22;2107;52.306;10.484;2023-03-05T01:17:58;2.40;99.90
4187;DHT22;2107;52.306;10.484;2023-03-05T01:20:25;2.40;99.90
4187;DHT22;2107;52.306;10.484;2023-03-05T01:22:53;2.40;99.90
4187;DHT22;2107;52.306;10.484;2023-03-05T01:25:20;2.30;99.90
4187;DHT22;2107;52.306;10.484;2023-03-05T01:27:47;2.30;99.90
4187;DHT22;2107;52.306;10.484;2023-03-05T01:30:14;2.30;99.90
4187;DHT22;2107;52.306;10.484;2023-03-05T01:32:41;2.30;99.90
4187;DHT22;2107;52.306;10.484;2023-03-05T01:35:15;2.30;99.90
4187;DHT22;2107;52.306;10.484;2023-03-05T01:37:42;2.30;99.90
4187;DHT22;2107;52.306;10.484;2023-03-05T01:40:13;2.30;99.90
4187;DHT22;2107;52.306;10.484;2023-03-05T01:42:44;2.30;99.90
4187;DHT22;2107;52.306;10.484;2023-03-05T01:45:13;2.30;99.90
4187;DHT22;2107;52.306;10.484;2023-03-05T01:47:41;2.30;99.90
4187;DHT22;2107;52.306;10.484;2023-03-05T01:50:15;2.30;99.90
4187;DHT22;2107;52.306;10.484;2023-03-05T01:52:44;2.20;99.90
4187;DHT22;2107;52.306;10.484;2023-03-05T01:55:16;2.20;99.90
4187;DHT22;2107;52.306;10.484;2023-03-05T01:57:46;2.30;99.90
4187;DHT22;2107;52.306;10.484;2023-03-05T02:00:16;2.30;99.90
4187;DHT22;2107;52.306;10.484;2023-03-05T02:02:44;2.30;99.90
4187;DHT22;2107;52.306;10.484;2023-03-05T02:05:15;2.40;99.90
4187;DHT22;2107;52.306;10.484;2023-03-05T02:07:43;2.40;99.90
4187;DHT22;2107;52.306;10.484;2023-03-05T02:10:20;2.40;99.90
4187;DHT22;2107;52.306;10.484;2023-03-05T02:12:49;2.50;99.90
4187;DHT22;2107;52.306;10.484;2023-03-05T02:15:17;2.50;99.90
4187;DHT22;2107;52.306;10.484;2023-03-05T02:17:44;2.90;99.90
4187;DHT22;2107;52.306;10.484;2023-03-05T02:20:13;5.20;99.90
4187;DHT22;2107;52.306;10.484;2023-03-05T02:22:42;5.50;99.90
4187;DHT22;2107;52.306;10.484;2023-03-05T02:25:17;5.70;99.90
4187;DHT22;2107;52.306;10.484;2023-03-05T02:27:50;5.80;99.90
4187;DHT22;2107;52.306;10.484;2023-03-05T02:30:19;5.70;99.90
4187;DHT22;2107;52.306;10.484;2023-03-05T02:32:46;5.50;99.90
4187;DHT22;2107;52.306;10.484;2023-03-05T02:35:12;5.70;99.90
4187;DHT22;2107;52.306;10.484;2023-03-05T02:37:39;5.80;99.90
4187;DHT22;2107;52.306;10.484;2023-03-05T02:40:10;5.60;99.90
4187;DHT22;2107;52.306;10.484;2023-03-05T02:42:37;7.30;99.90
4187;DHT22;2107;52.306;10.484;2023-03-05T02:47:32;7.50;99.90
4187;DHT22;2107;52.306;10.484;2023-03-05T02:49:58;3.90;99.90
4187;DHT22;2107;52.306;10.484;2023-03-05T02:52:26;5.80;99.90
4187;DHT22;2107;52.306;10.484;2023-03-05T02:54:54;11.70;99.90
4187;DHT22;2107;52.306;10.484;2023-03-05T02:57:22;12.40;99.90
4187;DHT22;2107;52.306;10.484;2023-03-05T02:59:49;11.70;99.90
4187;DHT22;2107;52.306;10.484;2023-03-05T03:02:16;9.10;99.90
4187;DHT22;2107;52.306;10.484;2023-03-05T03:04:44;10.60;99.90
4187;DHT22;2107;52.306;10.484;2023-03-05T03:07:11;10.50;99.90
4187;DHT22;2107;52.306;10.484;2023-03-05T03:09:39;10.60;99.90
4187;DHT22;2107;52.306;10.484;2023-03-05T03:12:07;10.00;99.90
4187;DHT22;2107;52.306;10.484;2023-03-05T03:14:37;9.70;99.90
4187;DHT22;2107;52.306;10.484;2023-03-05T03:17:05;10.00;99.90
4187;DHT22;2107;52.306;10.484;2023-03-05T03:19:33;9.00;99.90
4187;DHT22;2107;52.306;10.484;2023-03-05T03:22:00;9.40;99.90
4187;DHT22;2107;52.306;10.484;2023-03-05T03:24:28;9.10;99.90
4187;DHT22;2107;52.306;10.484;2023-03-05T03:26:55;8.40;99.90
4187;DHT22;2107;52.306;10.484;2023-03-05T03:29:22;9.10;99.90
4187;DHT22;2107;52.306;10.484;2023-03-05T03:31:51;9.50;99.90
4187;DHT22;2107;52.306;10.484;2023-03-05T03:34:18;7.40;99.90
4187;DHT22;2107;52.306;10.484;2023-03-05T03:36:46;9.10;99.90
4187;DHT22;2107;52.306;10.484;2023-03-05T03:39:14;9.10;99.90
4187;DHT22;2107;52.306;10.484;2023-03-05T03:41:42;4.50;99.90
4187;DHT22;2107;52.306;10.484;2023-03-05T03:44:09;7.50;99.90
4187;DHT22;2107;52.306;10.484;2023-03-05T03:46:37;9.20;99.90
4187;DHT22;2107;52.306;10.484;2023-03-05T03:49:06;3.30;99.90
4187;DHT22;2107;52.306;10.484;2023-03-05T03:51:33;2.80;99.90
4187;DHT22;2107;52.306;10.484;2023-03-05T03:54:00;8.60;99.90
4187;DHT22;2107;52.306;10.484;2023-03-05T03:56:27;2.70;99.90
4187;DHT22;2107;52.306;10.484;2023-03-05T03:58:54;9.30;99.90
4187;DHT22;2107;52.306;10.484;2023-03-05T04:01:21;6.70;99.90
4187;DHT22;2107;52.306;10.484;2023-03-05T04:03:47;2.30;99.90
4187;DHT22;2107;52.306;10.484;2023-03-05T04:06:16;2.50;99.90
4187;DHT22;2107;52.306;10.484;2023-03-05T04:08:43;6.30;99.90
4187;DHT22;2107;52.306;10.484;2023-03-05T04:11:09;8.20;99.90
4187;DHT22;2107;52.306;10.484;2023-03-05T04:13:36;2.20;99.90
4187;DHT22;2107;52.306;10.484;2023-03-05T04:16:04;2.60;99.90
4187;DHT22;2107;52.306;10.484;2023-03-05T04:18:30;2.20;99.90
4187;DHT22;2107;52.306;10.484;2023-03-05T04:20:57;2.20;99.90
4187;DHT22;2107;52.306;10.484;2023-03-05T04:23:25;2.20;99.90
4187;DHT22;2107;52.306;10.484;2023-03-05T04:25:52;2.00;99.90
4187;DHT22;2107;52.306;10.484;2023-03-05T04:28:19;2.00;99.90
4187;DHT22;2107;52.306;10.484;2023-03-05T04:30:46;2.00;99.90
4187;DHT22;2107;52.306;10.484;2023-03-05T04:33:13;2.00;99.90
4187;DHT22;2107;52.306;10.484;2023-03-05T04:35:40;2.00;99.90
4187;DHT22;2107;52.306;10.484;2023-03-05T04:38:08;2.10;99.90
4187;DHT22;2107;52.306;10.484;2023-03-05T04:40:36;2.10;99.90
4187;DHT22;2107;52.306;10.484;2023-03-05T04:43:03;2.00;99.90
4187;DHT22;2107;52.306;10.484;2023-03-05T04:45:30;2.00;99.90
4187;DHT22;2107;52.306;10.484;2023-03-05T04:47:57;2.10;99.90
4187;DHT22;2107;52.306;10.484;2023-03-05T04:50:24;2.10;99.90
4187;DHT22;2107;52.306;10.484;2023-03-05T04:52:51;2.10;99.90
4187;DHT22;2107;52.306;10.484;2023-03-05T04:55:18;2.10;99.90
4187;DHT22;2107;52.306;10.484;2023-03-05T04:57:46;2.10;99.90
4187;DHT22;2107;52.306;10.484;2023-03-05T05:00:15;2.10;99.90
4187;DHT22;2107;52.306;10.484;2023-03-05T05:02:44;2.00;99.90
4187;DHT22;2107;52.306;10.484;2023-03-05T05:05:12;2.00;99.90
4187;DHT22;2107;52.306;10.484;2023-03-05T05:07:40;2.00;99.90
4187;DHT22;2107;52.306;10.484;2023-03-05T05:10:09;1.90;99.90
4187;DHT22;2107;52.306;10.484;2023-03-05T05:12:36;1.90;99.90
4187;DHT22;2107;52.306;10.484;2023-03-05T05:15:06;1.80;99.90
4187;DHT22;2107;52.306;10.484;2023-03-05T05:17:34;1.90;99.90
4187;DHT22;2107;52.306;10.484;2023-03-05T05:20:02;1.90;99.90
4187;DHT22;2107;52.306;10.484;2023-03-05T05:22:31;1.90;99.90
4187;DHT22;2107;52.306;10.484;2023-03-05T05:24:58;1.90;99.90
4187;DHT22;2107;52.306;10.484;2023-03-05T05:27:25;1.90;99.90
4187;DHT22;2107;52.306;10.484;2023-03-05T05:29:51;1.90;99.90
4187;DHT22;2107;52.306;10.484;2023-03-05T05:32:21;1.80;99.90
4187;DHT22;2107;52.306;10.484;2023-03-05T05:34:53;1.80;99.90
4187;DHT22;2107;52.306;10.484;2023-03-05T05:37:20;1.90;99.90
4187;DHT22;2107;52.306;10.484;2023-03-05T05:39:47;1.90;99.90
4187;DHT22;2107;52.306;10.484;2023-03-05T05:42:15;1.90;99.90
4187;DHT22;2107;52.306;10.484;2023-03-05T05:44:42;2.00;99.90
4187;DHT22;2107;52.306;10.484;2023-03-05T05:47:10;2.00;99.90
4187;DHT22;2107;52.306;10.484;2023-03-05T05:49:38;1.90;99.90
4187;DHT22;2107;52.306;10.484;2023-03-05T05:52:05;2.00;99.90
4187;DHT22;2107;52.306;10.484;2023-03-05T05:54:32;2.00;99.90
4187;DHT22;2107;52.306;10.484;2023-03-05T05:56:59;2.00;99.90
4187;DHT22;2107;52.306;10.484;2023-03-05T05:59:26;2.00;99.90
4187;DHT22;2107;52.306;10.484;2023-03-05T06:01:53;2.00;99.90
4187;DHT22;2107;52.306;10.484;2023-03-05T06:04:21;2.10;99.90
4187;DHT22;2107;52.306;10.484;2023-03-05T06:06:49;2.10;99.90
4187;DHT22;2107;52.306;10.484;2023-03-05T06:09:16;2.10;99.90
4187;DHT22;2107;52.306;10.484;2023-03-05T06:11:43;2.00;99.90
4187;DHT22;2107;52.306;10.484;2023-03-05T06:14:11;2.10;99.90
4187;DHT22;2107;52.306;10.484;2023-03-05T06:16:38;2.10;99.90
4187;DHT22;2107;52.306;10.484;2023-03-05T06:19:05;2.00;99.90
4187;DHT22;2107;52.306;10.484;2023-03-05T06:21:32;2.00;99.90
4187;DHT22;2107;52.306;10.484;2023-03-05T06:24:00;2.00;99.90
4187;DHT22;2107;52.306;10.484;2023-03-05T06:26:28;2.00;99.90
4187;DHT22;2107;52.306;10.484;2023-03-05T06:28:54;2.00;99.90
4187;DHT22;2107;52.306;10.484;2023-03-05T06:31:23;2.00;99.90
4187;DHT22;2107;52.306;10.484;2023-03-05T06:33:51;2.00;99.90
4187;DHT22;2107;52.306;10.484;2023-03-05T06:36:19;2.10;99.90
4187;DHT22;2107;52.306;10.484;2023-03-05T06:38:47;2.10;99.90
4187;DHT22;2107;52.306;10.484;2023-03-05T06:41:18;2.10;99.90
4187;DHT22;2107;52.306;10.484;2023-03-05T06:43:47;2.20;99.90
4187;DHT22;2107;52.306;10.484;2023-03-05T06:46:15;2.30;99.90
4187;DHT22;2107;52.306;10.484;2023-03-05T06:48:43;2.30;99.90
4187;DHT22;2107;52.306;10.484;2023-03-05T06:51:14;2.30;99.90
4187;DHT22;2107;52.306;10.484;2023-03-05T06:53:41;2.30;99.90
4187;DHT22;2107;52.306;10.484;2023-03-05T06:56:08;2.30;99.90
4187;DHT22;2107;52.306;10.484;2023-03-05T06:58:36;2.30;99.90
4187;DHT22;2107;52.306;10.484;2023-03-05T07:01:04;2.40;99.90
4187;DHT22;2107;52.306;10.484;2023-03-05T07:03:31;2.40;99.90
4187;DHT22;2107;52.306;10.484;2023-03-05T07:06:02;2.50;99.90
4187;DHT22;2107;52.306;10.484;2023-03-05T07:08:29;2.50;99.90
4187;DHT22;2107;52.306;10.484;2023-03-05T07:10:56;2.50;99.90
4187;DHT22;2107;52.306;10.484;2023-03-05T07:13:23;2.60;99.90
4187;DHT22;2107;52.306;10.484;2023-03-05T07:15:51;2.70;99.90
4187;DHT22;2107;52.306;10.484;2023-03-05T07:18:18;2.80;99.90
4187;DHT22;2107;52.306;10.484;2023-03-05T07:20:45;2.70;99.90
4187;DHT22;2107;52.306;10.484;2023-03-05T07:23:12;2.80;99.90
4187;DHT22;2107;52.306;10.484;2023-03-05T07:25:39;2.80;99.90
4187;DHT22;2107;52.306;10.484;2023-03-05T07:28:06;2.90;99.90
4187;DHT22;2107;52.306;10.484;2023-03-05T07:30:35;2.90;99.90
4187;DHT22;2107;52.306;10.484;2023-03-05T07:33:03;2.80;99.90
4187;DHT22;2107;52.306;10.484;2023-03-05T07:35:30;2.90;99.90
4187;DHT22;2107;52.306;10.484;2023-03-05T07:37:57;2.90;99.90
4187;DHT22;2107;52.306;10.484;2023-03-05T07:40:23;2.90;99.90
4187;DHT22;2107;52.306;10.484;2023-03-05T07:42:50;3.00;99.90
4187;DHT22;2107;52.306;10.484;2023-03-05T07:45:18;3.00;99.90
4187;DHT22;2107;52.306;10.484;2023-03-05T07:47:45;3.20;99.90
4187;DHT22;2107;52.306;10.484;2023-03-05T07:50:13;3.30;99.90
4187;DHT22;2107;52.306;10.484;2023-03-05T07:52:40;3.20;99.90
4187;DHT22;2107;52.306;10.484;2023-03-05T07:55:08;3.30;99.90
4187;DHT22;2107;52.306;10.484;2023-03-05T07:57:35;3.40;99.90
4187;DHT22;2107;52.306;10.484;2023-03-05T08:00:04;3.40;99.90
4187;DHT22;2107;52.306;10.484;2023-03-05T08:02:31;3.40;99.90
4187;DHT22;2107;52.306;10.484;2023-03-05T08:04:58;3.60;99.90
4187;DHT22;2107;52.306;10.484;2023-03-05T08:07:26;3.50;99.90
4187;DHT22;2107;52.306;10.484;2023-03-05T08:09:53;3.50;99.90
4187;DHT22;2107;52.306;10.484;2023-03-05T08:12:20;3.60;99.90
4187;DHT22;2107;52.306;10.484;2023-03-05T08:14:47;3.70;99.90
4187;DHT22;2107;52.306;10.484;2023-03-05T08:17:15;3.70;99.90
4187;DHT22;2107;52.306;10.484;2023-03-05T08:19:42;3.70;99.90
4187;DHT22;2107;52.306;10.484;2023-03-05T08:22:09;3.70;99.90
4187;DHT22;2107;52.306;10.484;2023-03-05T08:24:37;3.90;99.90
4187;DHT22;2107;52.306;10.484;2023-03-05T08:27:04;3.90;99.90
4187;DHT22;2107;52.306;10.484;2023-03-05T08:29:31;3.90;99.90
4187;DHT22;2107;52.306;10.484;2023-03-05T08:31:58;3.70;99.90
4187;DHT22;2107;52.306;10.484;2023-03-05T08:34:25;3.60;99.90
4187;DHT22;2107;52.306;10.484;2023-03-05T08:36:52;3.60;99.90
4187;DHT22;2107;52.306;10.484;2023-03-05T08:39:19;3.60;99.90
4187;DHT22;2107;52.306;10.484;2023-03-05T08:41:47;3.60;99.90
4187;DHT22;2107;52.306;10.484;2023-03-05T08:44:14;3.70;99.90
4187;DHT22;2107;52.306;10.484;2023-03-05T08:46:41;3.70;99.90
4187;DHT22;2107;52.306;10.484;2023-03-05T08:49:09;3.80;99.90
4187;DHT22;2107;52.306;10.484;2023-03-05T08:51:36;3.90;99.90
4187;DHT22;2107;52.306;10.484;2023-03-05T08:54:03;3.90;99.90
4187;DHT22;2107;52.306;10.484;2023-03-05T08:56:32;3.90;99.90
4187;DHT22;2107;52.306;10.484;2023-03-05T08:59:00;3.90;99.90
4187;DHT22;2107;52.306;10.484;2023-03-05T09:01:28;4.00;99.90
4187;DHT22;2107;52.306;10.484;2023-03-05T09:03:57;4.10;99.90
4187;DHT22;2107;52.306;10.484;2023-03-05T09:06:24;4.30;99.90
4187;DHT22;2107;52.306;10.484;2023-03-05T09:08:51;4.30;99.90
4187;DHT22;2107;52.306;10.484;2023-03-05T09:11:18;4.60;99.90
4187;DHT22;2107;52.306;10.484;2023-03-05T09:13:45;4.80;99.90
4187;DHT22;2107;52.306;10.484;2023-03-05T09:16:14;4.80;99.90
4187;DHT22;2107;52.306;10.484;2023-03-05T09:18:42;4.90;99.90
4187;DHT22;2107;52.306;10.484;2023-03-05T09:21:11;4.90;99.90
4187;DHT22;2107;52.306;10.484;2023-03-05T09:23:38;5.00;99.90
4187;DHT22;2107;52.306;10.484;2023-03-05T09:26:06;5.00;99.90
4187;DHT22;2107;52.306;10.484;2023-03-05T09:28:32;5.10;99.90
4187;DHT22;2107;52.306;10.484;2023-03-05T09:31:01;5.10;99.90
4187;DHT22;2107;52.306;10.484;2023-03-05T09:33:29;4.70;99.90
4187;DHT22;2107;52.306;10.484;2023-03-05T09:35:56;4.20;99.90
4187;DHT22;2107;52.306;10.484;2023-03-05T09:38:23;4.10;99.90
4187;DHT22;2107;52.306;10.484;2023-03-05T09:40:54;4.20;99.90
4187;DHT22;2107;52.306;10.484;2023-03-05T09:43:29;4.50;99.90
4187;DHT22;2107;52.306;10.484;2023-03-05T09:46:16;4.60;99.90
4187;DHT22;2107;52.306;10.484;2023-03-05T09:48:50;4.60;99.90
4187;DHT22;2107;52.306;10.484;2023-03-05T09:51:21;4.80;99.90
4187;DHT22;2107;52.306;10.484;2023-03-05T09:53:53;4.80;99.90
4187;DHT22;2107;52.306;10.484;2023-03-05T09:56:27;4.60;99.90
4187;DHT22;2107;52.306;10.484;2023-03-05T09:58:58;4.60;99.90
4187;DHT22;2107;52.306;10.484;2023-03-05T10:01:29;4.70;99.90
4187;DHT22;2107;52.306;10.484;2023-03-05T10:04:03;4.90;99.90
4187;DHT22;2107;52.306;10.484;2023-03-05T10:06:34;5.20;99.90
4187;DHT22;2107;52.306;10.484;2023-03-05T10:09:10;5.60;99.90
4187;DHT22;2107;52.306;10.484;2023-03-05T10:11:45;5.60;99.90
4187;DHT22;2107;52.306;10.484;2023-03-05T10:14:19;5.80;99.90
4187;DHT22;2107;52.306;10.484;2023-03-05T10:20:13;5.60;99.90
4187;DHT22;2107;52.306;10.484;2023-03-05T10:22:55;5.60;99.90
4187;DHT22;2107;52.306;10.484;2023-03-05T10:25:35;5.30;99.90
4187;DHT22;2107;52.306;10.484;2023-03-05T10:28:11;5.10;99.90
4187;DHT22;2107;52.306;10.484;2023-03-05T10:30:54;4.80;99.90
4187;DHT22;2107;52.306;10.484;2023-03-05T10:33:33;4.80;99.90
4187;DHT22;2107;52.306;10.484;2023-03-05T10:36:20;6.50;99.90
4187;DHT22;2107;52.306;10.484;2023-03-05T10:39:08;6.70;99.90
4187;DHT22;2107;52.306;10.484;2023-03-05T10:41:47;6.80;99.90
4187;DHT22;2107;52.306;10.484;2023-03-05T10:44:24;6.80;99.90
4187;DHT22;2107;52.306;10.484;2023-03-05T10:46:56;6.90;99.90
4187;DHT22;2107;52.306;10.484;2023-03-05T10:49:27;6.90;99.90
4187;DHT22;2107;52.306;10.484;2023-03-05T10:52:02;6.90;99.90
4187;DHT22;2107;52.306;10.484;2023-03-05T10:54:34;6.70;99.90
4187;DHT22;2107;52.306;10.484;2023-03-05T10:57:03;6.70;99.90
4187;DHT22;2107;52.306;10.484;2023-03-05T10:59:31;6.80;99.90
4187;DHT22;2107;52.306;10.484;2023-03-05T11:02:03;7.20;99.90
4187;DHT22;2107;52.306;10.484;2023-03-05T11:04:33;7.60;99.90
4187;DHT22;2107;52.306;10.484;2023-03-05T11:07:07;7.80;99.90
4187;DHT22;2107;52.306;10.484;2023-03-05T11:10:03;7.60;99.90
4187;DHT22;2107;52.306;10.484;2023-03-05T11:12:31;7.60;99.90
4187;DHT22;2107;52.306;10.484;2023-03-05T11:15:04;7.50;99.90
4187;DHT22;2107;52.306;10.484;2023-03-05T11:17:34;7.80;99.90
4187;DHT22;2107;52.306;10.484;2023-03-05T11:20:22;8.00;99.90
4187;DHT22;2107;52.306;10.484;2023-03-05T11:23:09;8.20;99.90
4187;DHT22;2107;52.306;10.484;2023-03-05T11:25:53;8.40;99.90
4187;DHT22;2107;52.306;10.484;2023-03-05T11:28:23;8.40;99.90
4187;DHT22;2107;52.306;10.484;2023-03-05T11:31:03;8.30;99.90
4187;DHT22;2107;52.306;10.484;2023-03-05T11:33:32;8.50;99.90
4187;DHT22;2107;52.306;10.484;2023-03-05T11:36:21;8.70;99.90
4187;DHT22;2107;52.306;10.484;2023-03-05T11:38:53;8.70;99.90
4187;DHT22;2107;52.306;10.484;2023-03-05T11:41:26;8.60;99.90
4187;DHT22;2107;52.306;10.484;2023-03-05T11:43:55;8.80;99.90
4187;DHT22;2107;52.306;10.484;2023-03-05T11:46:24;8.80;99.90
4187;DHT22;2107;52.306;10.484;2023-03-05T11:48:52;8.80;99.90
4187;DHT22;2107;52.306;10.484;2023-03-05T11:51:24;8.70;99.90
4187;DHT22;2107;52.306;10.484;2023-03-05T11:53:58;8.80;99.90
4187;DHT22;2107;52.306;10.484;2023-03-05T11:56:29;9.00;99.90
4187;DHT22;2107;52.306;10.484;2023-03-05T11:59:01;9.20;99.90
4187;DHT22;2107;52.306;10.484;2023-03-05T12:01:31;9.30;99.90
4187;DHT22;2107;52.306;10.484;2023-03-05T12:03:58;9.40;99.90
4187;DHT22;2107;52.306;10.484;2023-03-05T12:06:28;9.60;99.90
4187;DHT22;2107;52.306;10.484;2023-03-05T12:09:02;9.50;99.90
4187;DHT22;2107;52.306;10.484;2023-03-05T12:11:30;9.60;99.90
4187;DHT22;2107;52.306;10.484;2023-03-05T12:14:01;9.50;99.90
4187;DHT22;2107;52.306;10.484;2023-03-05T12:16:35;9.50;99.90
4187;DHT22;2107;52.306;10.484;2023-03-05T12:19:32;9.20;99.90
4187;DHT22;2107;52.306;10.484;2023-03-05T12:22:01;9.10;99.90
4187;DHT22;2107;52.306;10.484;2023-03-05T12:24:35;9.00;99.90
4187;DHT22;2107;52.306;10.484;2023-03-05T12:27:33;8.90;99.90
4187;DHT22;2107;52.306;10.484;2023-03-05T12:30:02;8.90;99.90
4187;DHT22;2107;52.306;10.484;2023-03-05T12:32:56;9.10;99.90
4187;DHT22;2107;52.306;10.484;2023-03-05T12:35:27;9.10;99.90
4187;DHT22;2107;52.306;10.484;2023-03-05T12:41:31;8.70;99.90
4187;DHT22;2107;52.306;10.484;2023-03-05T12:44:16;8.60;99.90
4187;DHT22;2107;52.306;10.484;2023-03-05T12:46:44;8.70;99.90
4187;DHT22;2107;52.306;10.484;2023-03-05T12:49:36;9.20;99.90
4187;DHT22;2107;52.306;10.484;2023-03-05T12:52:03;9.50;99.90
4187;DHT22;2107;52.306;10.484;2023-03-05T12:54:32;9.70;99.90
4187;DHT22;2107;52.306;10.484;2023-03-05T12:57:04;9.70;99.90
4187;DHT22;2107;52.306;10.484;2023-03-05T12:59:39;9.90;99.90
4187;DHT22;2107;52.306;10.484;2023-03-05T13:02:22;10.40;99.90
4187;DHT22;2107;52.306;10.484;2023-03-05T13:04:52;10.30;99.90
4187;DHT22;2107;52.306;10.484;2023-03-05T13:07:22;10.30;99.90
4187;DHT22;2107;52.306;10.484;2023-03-05T13:09:53;10.40;99.90
4187;DHT22;2107;52.306;10.484;2023-03-05T13:12:22;10.50;99.90
4187;DHT22;2107;52.306;10.484;2023-03-05T13:14:57;10.60;99.90
4187;DHT22;2107;52.306;10.484;2023-03-05T13:17:31;10.40;99.90
4187;DHT22;2107;52.306;10.484;2023-03-05T13:20:00;10.40;99.90
4187;DHT22;2107;52.306;10.484;2023-03-05T13:22:30;10.10;99.90
4187;DHT22;2107;52.306;10.484;2023-03-05T13:25:12;9.90;99.90
4187;DHT22;2107;52.306;10.484;2023-03-05T13:27:40;9.70;99.90
4187;DHT22;2107;52.306;10.484;2023-03-05T13:30:20;9.40;99.90
4187;DHT22;2107;52.306;10.484;2023-03-05T13:32:49;9.40;99.90
4187;DHT22;2107;52.306;10.484;2023-03-05T13:35:18;8.90;99.90
4187;DHT22;2107;52.306;10.484;2023-03-05T13:37:47;9.00;99.90
4187;DHT22;2107;52.306;10.484;2023-03-05T13:40:20;9.10;99.90
4187;DHT22;2107;52.306;10.484;2023-03-05T13:42:49;9.40;99.90
4187;DHT22;2107;52.306;10.484;2023-03-05T13:45:23;9.50;99.90
4187;DHT22;2107;52.306;10.484;2023-03-05T13:47:52;9.50;99.90
4187;DHT22;2107;52.306;10.484;2023-03-05T13:50:23;9.30;99.90
4187;DHT22;2107;52.306;10.484;2023-03-05T13:52:51;9.10;99.90
4187;DHT22;2107;52.306;10.484;2023-03-05T13:55:18;9.10;99.90
4187;DHT22;2107;52.306;10.484;2023-03-05T13:57:49;9.00;99.90
4187;DHT22;2107;52.306;10.484;2023-03-05T14:00:29;8.80;99.90
4187;DHT22;2107;52.306;10.484;2023-03-05T14:02:59;8.80;99.90
4187;DHT22;2107;52.306;10.484;2023-03-05T14:05:27;8.70;99.90
4187;DHT22;2107;52.306;10.484;2023-03-05T14:07:55;8.60;99.90
4187;DHT22;2107;52.306;10.484;2023-03-05T14:10:29;8.60;99.90
4187;DHT22;2107;52.306;10.484;2023-03-05T14:12:59;8.50;99.90
4187;DHT22;2107;52.306;10.484;2023-03-05T14:15:30;8.60;99.90
4187;DHT22;2107;52.306;10.484;2023-03-05T14:18:08;8.40;99.90
4187;DHT22;2107;52.306;10.484;2023-03-05T14:20:57;8.70;99.90
4187;DHT22;2107;52.306;10.484;2023-03-05T14:23:29;9.00;99.90
4187;DHT22;2107;52.306;10.484;2023-03-05T14:26:17;9.00;99.90
4187;DHT22;2107;52.306;10.484;2023-03-05T14:28:51;8.90;99.90
4187;DHT22;2107;52.306;10.484;2023-03-05T14:31:19;9.00;99.90
4187;DHT22;2107;52.306;10.484;2023-03-05T14:33:47;8.60;99.90
4187;DHT22;2107;52.306;10.484;2023-03-05T14:36:23;8.40;99.90
4187;DHT22;2107;52.306;10.484;2023-03-05T14:38:52;8.50;99.90
4187;DHT22;2107;52.306;10.484;2023-03-05T14:41:21;8.90;99.90
4187;DHT22;2107;52.306;10.484;2023-03-05T14:43:55;9.40;99.90
4187;DHT22;2107;52.306;10.484;2023-03-05T14:46:22;9.40;99.90
4187;DHT22;2107;52.306;10.484;2023-03-05T14:48:49;9.40;99.90
4187;DHT22;2107;52.306;10.484;2023-03-05T14:51:16;9.10;99.90
4187;DHT22;2107;52.306;10.484;2023-03-05T14:53:45;8.70;99.90
4187;DHT22;2107;52.306;10.484;2023-03-05T14:56:17;8.60;99.90
4187;DHT22;2107;52.306;10.484;2023-03-05T14:58:45;8.50;99.90
4187;DHT22;2107;52.306;10.484;2023-03-05T15:01:13;8.30;99.90
4187;DHT22;2107;52.306;10.484;2023-03-05T15:03:40;8.00;99.90
4187;DHT22;2107;52.306;10.484;2023-03-05T15:06:08;7.60;99.90
4187;DHT22;2107;52.306;10.484;2023-03-05T15:08:41;8.00;99.90
4187;DHT22;2107;52.306;10.484;2023-03-05T15:11:08;8.00;99.90
4187;DHT22;2107;52.306;10.484;2023-03-05T15:13:35;8.00;99.90
4187;DHT22;2107;52.306;10.484;2023-03-05T15:16:03;8.00;99.90
4187;DHT22;2107;52.306;10.484;2023-03-05T15:18:32;7.90;99.90
4187;DHT22;2107;52.306;10.484;2023-03-05T15:20:59;8.00;99.90
4187;DHT22;2107;52.306;10.484;2023-03-05T15:23:27;7.60;99.90
4187;DHT22;2107;52.306;10.484;2023-03-05T15:26:00;7.60;99.90
4187;DHT22;2107;52.306;10.484;2023-03-05T15:28:31;7.80;99.90
4187;DHT22;2107;52.306;10.484;2023-03-05T15:30:59;7.70;99.90
4187;DHT22;2107;52.306;10.484;2023-03-05T15:33:26;7.80;99.90
4187;DHT22;2107;52.306;10.484;2023-03-05T15:35:56;7.90;99.90
4187;DHT22;2107;52.306;10.484;2023-03-05T15:38:23;7.70;99.90
4187;DHT22;2107;52.306;10.484;2023-03-05T15:40:53;7.70;99.90
4187;DHT22;2107;52.306;10.484;2023-03-05T15:43:20;7.90;99.90
4187;DHT22;2107;52.306;10.484;2023-03-05T15:45:47;7.90;99.90
4187;DHT22;2107;52.306;10.484;2023-03-05T15:48:14;8.00;99.90
4187;DHT22;2107;52.306;10.484;2023-03-05T15:50:41;7.60;99.90
4187;DHT22;2107;52.306;10.484;2023-03-05T15:53:12;7.80;99.90
4187;DHT22;2107;52.306;10.484;2023-03-05T15:55:41;8.00;99.90
4187;DHT22;2107;52.306;10.484;2023-03-05T15:58:12;8.50;99.90
4187;DHT22;2107;52.306;10.484;2023-03-05T16:00:40;6.60;99.90
4187;DHT22;2107;52.306;10.484;2023-03-05T16:03:07;7.20;99.90
4187;DHT22;2107;52.306;10.484;2023-03-05T16:05:35;7.20;99.90
4187;DHT22;2107;52.306;10.484;2023-03-05T16:08:02;7.30;99.90
4187;DHT22;2107;52.306;10.484;2023-03-05T16:10:30;7.40;99.90
4187;DHT22;2107;52.306;10.484;2023-03-05T16:13:01;7.40;99.90
4187;DHT22;2107;52.306;10.484;2023-03-05T16:15:30;7.40;99.90
4187;DHT22;2107;52.306;10.484;2023-03-05T16:17:59;7.30;99.90
4187;DHT22;2107;52.306;10.484;2023-03-05T16:20:28;7.20;99.90
4187;DHT22;2107;52.306;10.484;2023-03-05T16:22:55;7.20;99.90
4187;DHT22;2107;52.306;10.484;2023-03-05T16:25:21;7.40;99.90
4187;DHT22;2107;52.306;10.484;2023-03-05T16:27:50;7.40;99.90